Data for 07/10/2014

Time Sea-Level Adjusted Pressure Absolute Pressure Temperature Relative Humidity Dew Point   
(mb) (inHg) (mb) (inHg) (C) (F) (%) (C) (F)
00:05 1018 30.06 847 25.01 18.3 64.9 53 8.7 47.7
00:10 1018 30.06 847 25.01 18.5 65.2 54 9 48.2
00:15 1018 30.06 847 25.01 18.4 65 54 8.9 48.1
00:20 1018 30.06 847 25.01 18.3 65 54 9.1 48.3
00:25 1018 30.06 847 25.01 18.3 64.9 54 9 48.3
00:30 1018 30.06 847 25.01 18.3 65 54 9 48.2
00:35 1018 30.06 847 25.01 18.4 65.2 55 9.4 49
00:40 1018 30.06 847 25.01 18.5 65.3 55 9.3 48.7
00:45 1017 30.03 847 25.01 18.6 65.5 53 9.1 48.3
00:50 1017 30.03 847 25.01 18.4 65.2 55 9.3 48.7
00:55 1017 30.03 847 25.01 18.4 65.1 53 8.7 47.6
01:00 1017 30.03 847 25.01 18.6 65.5 53 8.8 47.9
01:05 1017 30.03 847 25.01 18.6 65.5 52 8.6 47.5
01:10 1017 30.03 846 24.98 18.7 65.6 56 9.7 49.4
01:15 1017 30.03 846 24.98 18.8 65.9 53 9.3 48.7
01:20 1017 30.03 846 24.98 18.5 65.3 55 9.4 48.9
01:25 1017 30.03 846 24.98 17.9 64.2 56 9.1 48.4
01:30 1017 30.03 846 24.98 18 64.3 54 8.6 47.5
01:35 1017 30.03 846 24.98 18.2 64.7 55 9 48.2
01:40 1017 30.03 846 24.98 18.1 64.5 56 9.3 48.7
01:45 1017 30.03 846 24.98 17.8 64 56 9 48.3
01:50 1017 30.03 846 24.98 17.7 63.8 56 9 48.2
01:55 1017 30.03 846 24.98 17.7 63.8 55 8.7 47.6
02:00 1017 30.03 846 24.98 17.7 63.9 56 8.9 48.1
02:05 1017 30.03 847 25.01 17.8 64 56 8.8 47.9
02:10 1017 30.03 846 24.98 17.9 64.2 57 9.2 48.6
02:15 1017 30.03 846 24.98 17.9 64.1 58 9.7 49.4
02:20 1017 30.03 846 24.98 17.9 64.1 57 9.3 48.8
02:25 1017 30.03 846 24.98 17.9 64.1 62 10.5 50.9
02:30 1017 30.03 846 24.98 17.8 64 61 10.4 50.6
02:35 1017 30.03 846 24.98 17.5 63.6 62 10.2 50.4
02:40 1017 30.03 847 25.01 17.4 63.2 62 10.2 50.3
02:45 1017 30.03 846 24.98 17.1 62.9 63 10.1 50.2
02:50 1017 30.03 846 24.98 16.9 62.3 65 10.3 50.5
02:55 1017 30.03 846 24.98 16.9 62.5 65 10.3 50.6
03:00 1017 30.03 846 24.98 17.1 62.8 62 9.9 49.7
03:05 1017 30.03 846 24.98 16.9 62.5 62 9.7 49.5
03:10 1017 30.03 846 24.98 17 62.5 60 9.2 48.6
03:15 1017 30.03 846 24.98 17.2 62.9 58 8.8 47.8
03:20 1017 30.03 846 24.98 17.5 63.5 61 9.9 49.8
03:25 1017 30.03 846 24.98 17.4 63.4 60 9.7 49.4
03:30 1017 30.03 846 24.98 17.2 63 63 10.2 50.4
03:35 1017 30.03 846 24.98 16.9 62.3 66 10.5 50.9
03:40 1017 30.03 846 24.98 16.7 62 63 9.6 49.3
03:45 1017 30.03 846 24.98 16.8 62.2 64 10 50
03:50 1017 30.03 846 24.98 16.9 62.3 64 10.2 50.3
03:55 1017 30.03 846 24.98 16.7 62.1 63 9.8 49.7
04:00 1017 30.03 847 25.01 16.6 61.9 64 9.8 49.7
04:05 1017 30.03 847 25.01 16.6 61.9 63 9.6 49.3
04:10 1017 30.03 847 25.01 16.6 61.9 62 9.5 49
04:15 1017 30.03 847 25.01 16.8 62.2 61 9.2 48.6
04:20 1017 30.03 847 25.01 16.8 62.3 64 10.2 50.3
04:25 1018 30.06 847 25.01 16.7 62 65 10.1 50.2
04:30 1018 30.06 847 25.01 16.6 61.9 65 10.2 50.3
04:35 1018 30.06 847 25.01 16.6 61.9 66 10.4 50.7
04:40 1018 30.06 847 25.01 16.6 61.9 65 10 50
04:45 1018 30.06 847 25.01 16.5 61.7 65 9.9 49.8
04:50 1018 30.06 847 25.01 16.4 61.5 65 9.8 49.6
04:55 1018 30.06 847 25.01 16.3 61.3 62 9.1 48.4
05:00 1018 30.06 847 25.01 16.6 61.8 63 9.7 49.5
05:05 1018 30.06 847 25.01 16.7 62.1 66 10.5 50.9
05:10 1018 30.06 847 25.01 17.1 62.8 62 9.9 49.8
05:15 1018 30.06 847 25.01 16.7 62.1 66 10.5 50.9
05:20 1018 30.06 847 25.01 16.2 61.2 67 10.1 50.3
05:25 1018 30.06 847 25.01 16.4 61.6 66 10.1 50.1
05:30 1018 30.06 847 25.01 16.4 61.5 65 9.9 49.9
05:35 1018 30.06 847 25.01 16.6 61.8 65 10.1 50.2
05:40 1018 30.06 847 25.01 16.8 62.3 64 10 50
05:45 1018 30.06 847 25.01 17.1 62.8 61 9.5 49.2
05:50 1018 30.06 847 25.01 17.3 63.1 61 9.7 49.5
05:55 1018 30.06 847 25.01 17.2 62.9 61 9.8 49.6
06:00 1018 30.06 847 25.01 17.1 62.7 61 9.6 49.3
06:05 1018 30.06 847 25.01 16.9 62.5 64 10.1 50.2
06:10 1018 30.06 847 25.01 17 62.6 63 10 50.1
06:15 1018 30.06 847 25.01 16.9 62.4 63 9.8 49.7
06:20 1018 30.06 847 25.01 16.9 62.3 62 9.6 49.3
06:25 1018 30.06 847 25.01 17.2 63 61 9.8 49.7
06:30 1018 30.06 847 25.01 17.5 63.4 62 10.1 50.1
06:35 1018 30.06 847 25.01 17.8 64 60 10.1 50.1
06:40 1018 30.06 847 25.01 17.8 64 60 10.1 50.2
06:45 1018 30.06 847 25.01 18.1 64.6 58 9.8 49.6
06:50 1018 30.06 847 25.01 18.5 65.2 57 9.9 49.9
06:55 1018 30.06 847 25.01 18.7 65.7 55 9.6 49.2
07:00 1018 30.06 848 25.04 19.2 66.5 54 9.9 49.8
07:05 1018 30.06 848 25.04 19.7 67.4 53 9.9 49.9
07:10 1018 30.06 848 25.04 19.8 67.6 51 9.6 49.2
07:15 1018 30.06 848 25.04 20 68.1 52 10 50
07:20 1018 30.06 848 25.04 20.8 69.5 50 10.2 50.3
07:25 1018 30.06 848 25.04 21.4 70.5 48 10.1 50.1
07:30 1018 30.06 848 25.04 22.3 72.1 46 10.2 50.3
07:35 1018 30.06 848 25.04 22.6 72.7 44 10 49.9
07:40 1018 30.06 848 25.04 22.3 72.1 45 9.8 49.6
07:45 1018 30.06 848 25.04 22.4 72.3 45 10 50
07:50 1018 30.06 848 25.04 22.6 72.7 44 10 50.1
07:55 1018 30.06 848 25.04 22.7 72.8 46 10.7 51.2
08:00 1018 30.06 848 25.04 22.6 72.6 45 10.3 50.5
08:05 1018 30.06 848 25.04 22.6 72.6 44 9.8 49.7
08:10 1018 30.06 848 25.04 23.3 73.9 43 10.2 50.3
08:15 1018 30.06 848 25.04 23.6 74.6 40 9.3 48.7
08:20 1018 30.06 848 25.04 24.2 75.5 36 8.4 47.2
08:25 1018 30.06 848 25.04 23.7 74.7 36 8.1 46.6
08:30 1018 30.06 848 25.04 24.2 75.6 37 8.8 47.9
08:35 1018 30.06 848 25.04 24.3 75.7 36 8.6 47.5
08:40 1018 30.06 848 25.04 24.1 75.4 36 8.2 46.7
08:45 1018 30.06 848 25.04 24.2 75.6 35 7.9 46.3
08:50 1018 30.06 848 25.04 24.3 75.7 34 7.5 45.4
08:55 1018 30.06 848 25.04 25 77 34 8.1 46.5
09:00 1018 30.06 848 25.04 24.7 76.5 35 8.4 47.1
09:05 1018 30.06 848 25.04 25.1 77.1 34 8.3 46.9
09:10 1018 30.06 848 25.04 24.7 76.5 34 8.1 46.6
09:15 1018 30.06 848 25.04 24.5 76.1 35 8.4 47.2
09:20 1018 30.06 848 25.04 24.3 75.7 36 8.3 47
09:25 1018 30.06 847 25.01 25 77 33 7.7 45.9
09:30 1018 30.06 847 25.01 25.6 78.2 32 7.8 46.1
09:35 1018 30.06 847 25.01 26.3 79.4 31 8.2 46.8
09:40 1018 30.06 847 25.01 26.6 79.8 29 7.4 45.3
09:45 1018 30.06 847 25.01 25.9 78.6 30 7.1 44.8
09:50 1018 30.06 847 25.01 26.6 79.8 28 7 44.6
09:55 1018 30.06 847 25.01 26.3 79.3 31 7.9 46.2
10:00 1018 30.06 847 25.01 26.1 78.9 29 7.1 44.7
10:05 1018 30.06 847 25.01 25.4 77.8 29 6.5 43.6
10:10 1018 30.06 847 25.01 25.9 78.6 30 7.2 44.9
10:15 1018 30.06 847 25.01 26.7 80.1 29 7.3 45.1
10:20 1018 30.06 847 25.01 26 78.9 31 7.7 45.9
10:25 1018 30.06 847 25.01 26.2 79.2 29 6.9 44.5
10:30 1018 30.06 847 25.01 25.6 78 30 6.8 44.3
10:35 1018 30.06 847 25.01 26.2 79.1 28 6.4 43.5
10:40 1018 30.06 847 25.01 26.5 79.7 29 7.4 45.3
10:45 1018 30.06 847 25.01 26.7 80 26 5.6 42.1
10:50 1018 30.06 847 25.01 27.3 81.2 28 7.3 45.2
10:55 1018 30.06 847 25.01 27.2 80.9 28 7.2 44.9
11:00 1018 30.06 847 25.01 27.2 81 29 7.7 45.8
11:05 1018 30.06 847 25.01 26.9 80.4 28 7 44.6
11:10 1018 30.06 847 25.01 26.5 79.6 26 5.9 42.6
11:15 1018 30.06 847 25.01 26.8 80.3 28 6.8 44.3
11:20 1018 30.06 847 25.01 27.2 80.9 26 6.3 43.4
11:25 1018 30.06 847 25.01 27.5 81.5 25 6.1 42.9
11:30 1018 30.06 847 25.01 27.3 81.2 25 6.1 42.9
11:35 1018 30.06 847 25.01 27.4 81.2 26 6.2 43.2
11:40 1017 30.03 847 25.01 27.8 82.1 25 6.1 43
11:45 1017 30.03 847 25.01 27.6 81.7 26 6.5 43.7
11:50 1017 30.03 847 25.01 28.3 82.9 24 6.4 43.5
11:55 1017 30.03 847 25.01 29 84.1 23 6.3 43.4
12:00 1017 30.03 847 25.01 28.5 83.2 25 6.7 44.1
12:05 1017 30.03 846 24.98 28.1 82.6 25 6.4 43.6
12:10 1017 30.03 846 24.98 28.3 82.9 25 6.6 43.8
12:15 1017 30.03 846 24.98 28.8 83.9 24 6.6 43.9
12:20 1017 30.03 846 24.98 28.8 83.9 23 6.2 43.1
12:25 1017 30.03 846 24.98 28.9 84 25 7 44.7
12:30 1017 30.03 846 24.98 28.7 83.7 24 6.6 43.8
12:35 1017 30.03 846 24.98 27.6 81.7 27 7.2 45
12:40 1017 30.03 846 24.98 27.7 81.9 26 6.9 44.5
12:45 1017 30.03 846 24.98 28.6 83.5 24 6.5 43.7
12:50 1017 30.03 846 24.98 29.5 85.2 23 6.5 43.8
12:55 1017 30.03 846 24.98 29.3 84.7 24 7.1 44.7
13:00 1017 30.03 846 24.98 28.8 83.9 24 6.5 43.7
13:05 1017 30.03 846 24.98 28.9 83.9 24 6.8 44.2
13:10 1017 30.03 846 24.98 29.3 84.8 23 6.6 43.8
13:15 1017 30.03 846 24.98 29.6 85.3 24 7.5 45.6
13:20 1017 30.03 846 24.98 29.5 85 24 6.9 44.4
13:25 1016 30 846 24.98 29.8 85.6 24 7.2 45
13:30 1016 30 846 24.98 29.3 84.8 24 6.9 44.4
13:35 1016 30 846 24.98 29.5 85 22 6.2 43.1
13:40 1016 30 846 24.98 29.9 85.8 22 6.5 43.7
13:45 1016 30 846 24.98 30.4 86.7 22 6.5 43.8
13:50 1016 30 845 24.95 30.2 86.4 24 7.5 45.5
13:55 1016 30 845 24.95 30.1 86.1 22 6.7 44
14:00 1016 30 845 24.95 29.6 85.3 23 6.4 43.6
14:05 1016 30 845 24.95 30 86 23 7 44.7
14:10 1016 30 845 24.95 29.8 85.7 22 6.3 43.3
14:15 1016 30 845 24.95 30.4 86.8 22 6.5 43.8
14:20 1016 30 845 24.95 29.9 85.7 23 6.8 44.3
14:25 1016 30 845 24.95 29.5 85 22 6.1 43
14:30 1016 30 845 24.95 30.4 86.7 20 5.5 41.9
14:35 1016 30 845 24.95 30.6 87 22 6.5 43.8
14:40 1016 30 845 24.95 30.5 87 21 6 42.8
14:45 1016 30 845 24.95 30.6 87.1 21 6.2 43.1
14:50 1016 30 845 24.95 29.7 85.5 22 5.8 42.4
14:55 1016 30 845 24.95 30.3 86.5 18 4 39.2
15:00 1016 30 845 24.95 30.4 86.8 20 5.2 41.4
15:05 1016 30 845 24.95 29.9 85.7 20 4.6 40.4
15:10 1016 30 845 24.95 30.8 87.5 19 5.1 41.1
15:15 1016 30 845 24.95 31.5 88.6 19 5.6 42.1
15:20 1016 30 845 24.95 31.1 88.1 20 5.6 42
15:25 1016 30 845 24.95 30.7 87.3 19 4.5 40.1
15:30 1016 30 845 24.95 30.1 86.2 20 5.1 41.2
15:35 1015 29.97 845 24.95 29.4 85 22 5.6 42.1
15:40 1015 29.97 845 24.95 29.5 85.2 19 4 39.1
15:45 1015 29.97 845 24.95 30.8 87.4 18 4.1 39.3
15:50 1015 29.97 845 24.95 31.2 88.1 17 3.9 39
15:55 1015 29.97 845 24.95 31.2 88.2 19 5.3 41.6
16:00 1015 29.97 845 24.95 31.1 88.1 18 4 39.2
16:05 1015 29.97 845 24.95 31.3 88.4 19 5 41
16:10 1015 29.97 845 24.95 30.6 87.2 20 5.3 41.5
16:15 1015 29.97 844 24.92 30.1 86.3 19 4.6 40.2
16:20 1015 29.97 844 24.92 31 87.9 19 5.1 41.2
16:25 1015 29.97 844 24.92 31 87.7 19 5 41
16:30 1015 29.97 844 24.92 31.2 88.1 19 5.2 41.3
16:35 1015 29.97 844 24.92 30.3 86.5 18 4.1 39.3
16:40 1015 29.97 844 24.92 31.1 87.9 17 3.8 38.9
16:45 1015 29.97 844 24.92 31.5 88.6 16 3.1 37.6
16:50 1015 29.97 844 24.92 31.4 88.5 18 4.8 40.7
16:55 1015 29.97 844 24.92 30.5 86.9 19 4.8 40.6
17:00 1015 29.97 844 24.92 30.4 86.6 19 4.7 40.5
17:05 1015 29.97 844 24.92 30.9 87.5 19 4.7 40.4
17:10 1015 29.97 844 24.92 30 85.9 19 4.4 39.9
17:15 1015 29.97 844 24.92 30 86 20 4.8 40.7
17:20 1015 29.97 844 24.92 29.8 85.6 19 4 39.2
17:25 1015 29.97 844 24.92 30.4 86.7 19 4.8 40.7
17:30 1015 29.97 844 24.92 30.1 86.2 20 4.9 40.8
17:35 1015 29.97 844 24.92 30.1 86.2 19 4.4 40
17:40 1015 29.97 844 24.92 30.7 87.2 19 4.4 40
17:45 1015 29.97 844 24.92 30.2 86.4 19 4.6 40.4
17:50 1015 29.97 844 24.92 30 86 19 4.5 40.1
17:55 1015 29.97 844 24.92 29.7 85.4 19 4.1 39.3
18:00 1015 29.97 844 24.92 29.7 85.5 18 3.5 38.3
18:05 1015 29.97 844 24.92 30.1 86.3 18 3.6 38.4
18:10 1015 29.97 844 24.92 29.8 85.6 18 3.6 38.4
18:15 1015 29.97 844 24.92 29.9 85.8 19 4.1 39.3
18:20 1015 29.97 844 24.92 29.6 85.2 19 4 39.1
18:25 1015 29.97 844 24.92 29.1 84.4 20 4.1 39.3
18:30 1015 29.97 844 24.92 28.9 83.9 19 3.6 38.5
18:35 1015 29.97 844 24.92 28.9 84.1 20 3.7 38.7
18:40 1015 29.97 845 24.95 28.9 84 18 2.7 36.8
18:45 1015 29.97 845 24.95 28.8 83.9 18 2.4 36.3
18:50 1015 29.97 845 24.95 28.8 83.8 19 3.3 37.9
18:55 1015 29.97 845 24.95 28.8 83.8 18 2.8 37
19:00 1015 29.97 845 24.95 28.8 83.8 19 3.2 37.7
19:05 1015 29.97 845 24.95 28.7 83.7 20 3.9 38.9
19:10 1015 29.97 845 24.95 28.8 83.9 19 2.9 37.3
19:15 1015 29.97 845 24.95 28.6 83.5 21 4.5 40
19:20 1016 30 845 24.95 28.4 83 22 4.9 40.8
19:25 1016 30 845 24.95 28.2 82.7 21 4.4 39.9
19:30 1016 30 845 24.95 28.1 82.5 27 7.5 45.5
19:35 1016 30 845 24.95 27.7 81.9 30 8.6 47.5
19:40 1016 30 845 24.95 27.2 81 31 8.7 47.7
19:45 1016 30 845 24.95 27 80.6 31 8.9 48.1
19:50 1016 30 845 24.95 26.9 80.3 33 9.3 48.8
19:55 1016 30 845 24.95 26.4 79.5 37 10.7 51.3
20:00 1016 30 845 24.95 25.8 78.5 39 10.9 51.6
20:05 1016 30 845 24.95 25.1 77.2 39 10.6 51
20:10 1016 30 845 24.95 24.6 76.2 37 9.3 48.7
20:15 1016 30 845 24.95 24.1 75.3 38 9.1 48.4
20:20 1016 30 845 24.95 23.7 74.6 40 9.3 48.8
20:25 1016 30 845 24.95 23.3 74 43 10.2 50.4
20:30 1016 30 845 24.95 22.9 73.3 42 9.6 49.4
20:35 1016 30 845 24.95 22.6 72.7 40 8.4 47.1
20:40 1016 30 845 24.95 22.3 72.2 40 8.4 47.1
20:45 1016 30 845 24.95 21.9 71.3 41 8.2 46.7
20:50 1016 30 845 24.95 21.5 70.7 45 9.1 48.4
20:55 1016 30 846 24.98 21.2 70.1 44 8.6 47.5
21:00 1016 30 846 24.98 20.9 69.7 42 7.7 45.9
21:05 1016 30 846 24.98 21.2 70.1 40 7.2 45
21:10 1017 30.03 846 24.98 21.1 69.9 39 6.9 44.4
21:15 1017 30.03 846 24.98 21.1 69.9 36 5.6 42.1
21:20 1017 30.03 846 24.98 21.2 70.2 38 6.3 43.4
21:25 1017 30.03 846 24.98 21.2 70.2 37 6.2 43.2
21:30 1017 30.03 846 24.98 21.3 70.3 37 6.3 43.3
21:35 1017 30.03 846 24.98 20.9 69.6 39 6.4 43.6
21:40 1017 30.03 846 24.98 20.6 69 40 6.5 43.7
21:45 1017 30.03 846 24.98 20.4 68.7 38 5.8 42.5
21:50 1017 30.03 846 24.98 20.4 68.8 38 5.7 42.2
21:55 1017 30.03 846 24.98 20.5 68.9 37 5.6 42
22:00 1017 30.03 846 24.98 20.5 68.9 38 5.9 42.7
22:05 1017 30.03 846 24.98 20.5 68.9 36 5.2 41.3
22:10 1017 30.03 846 24.98 20.7 69.2 36 5.2 41.3
22:15 1017 30.03 846 24.98 20.8 69.4 35 4.9 40.7
22:20 1017 30.03 846 24.98 20.6 69.1 36 5.2 41.4
22:25 1017 30.03 847 25.01 20.3 68.5 39 5.9 42.5
22:30 1017 30.03 847 25.01 20 68 42 6.9 44.4
22:35 1017 30.03 846 24.98 19.7 67.4 41 6.1 43.1
22:40 1017 30.03 846 24.98 19.4 66.9 39 5.3 41.5
22:45 1017 30.03 847 25.01 19.3 66.7 39 5.3 41.5
22:50 1017 30.03 847 25.01 19.4 66.8 38 4.6 40.4
22:55 1017 30.03 847 25.01 19.6 67.3 38 5.2 41.3
23:00 1017 30.03 847 25.01 19.2 66.6 41 5.7 42.2
23:05 1017 30.03 847 25.01 18.7 65.7 43 5.8 42.5
23:10 1017 30.03 847 25.01 18.3 65 43 5.6 42.1
23:15 1017 30.03 847 25.01 18.4 65.1 42 5.3 41.5
23:20 1017 30.03 847 25.01 18.4 65.1 42 5.5 41.9
23:25 1017 30.03 847 25.01 18.2 64.8 43 5.5 41.9
23:30 1018 30.06 847 25.01 18 64.4 44 5.6 42
23:35 1018 30.06 847 25.01 18.1 64.5 46 6.3 43.4
23:40 1018 30.06 847 25.01 18.2 64.8 43 5.6 42.2
23:45 1018 30.06 847 25.01 18.2 64.8 41 4.8 40.7
23:50 1018 30.06 847 25.01 18.3 65 41 4.9 40.7
23:55 1018 30.06 847 25.01 18.3 65 40 4.6 40.2
24:00 1018 30.06 847 25.01 18.4 65.1 40 4.6 40.3